KOVE

Oroville Municipal Airport

Oroville, California, USA
METAR KOVE 131053Z AUTO 10005KT 10SM CLR 06/02 A3031 RMK AO2 SLP267 T00610022
Observed Flight Rules
Dec-13 @ 10:53 UTC (an hour ago) Visual Flight Rules
Wind Visibility Clouds
100° at 5 knots 10 miles
  • Clear skies
Temperatures Readings
Current 6°C / 43°F
Dewpoint 2°C / 36°F
Humidity 76%
Altimeter 30.31" Hg
Pressure 1026.7 hPa
Elevation 58
METAR KOVE 131053Z AUTO 10005KT 10SM CLR 06/02 A3031 RMK AO2 SLP267 T00610022
Observed Flight Rules
Dec-13 @ 10:53 UTC
(an hour ago)
VFR
Wind Visibility
100° at 5 knots 10 miles
Clouds
  • Clear skies
Temperature Dewpoint
6°C / 43°F 2°C / 36°F
Humidity Altimeter Pressure
76% 30.31" Hg 1026.7 hPa